Time;durP1;ratioP1;P1;durP2;ratioP2;P2;SDS_P1;SDS_P2;PMS_P1;PMS_P2;Temp;Humidity;BMP_temperature;BMP_pressure;BME280_temperature;BME280_humidity;BME280_pressure;Samples;Min_cycle;Max_cycle;Signal;HPM_P1;HPM_P2
2021/03/29 00:00:24;;;;;;;9.20;7.07;;;;;;;2.88;79.78;99351.91;5013895;28;20349;-67
2021/03/29 00:02:52;;;;;;;7.53;6.83;;;;;;;2.84;79.62;99348.63;5017335;28;20662;-67
2021/03/29 00:05:21;;;;;;;7.60;6.90;;;;;;;2.66;80.83;99360.03;5017802;28;20226;-68
2021/03/29 00:07:51;;;;;;;6.80;6.30;;;;;;;2.58;81.01;99366.53;5017179;28;20215;-67
2021/03/29 00:10:19;;;;;;;8.70;6.97;;;;;;;2.52;81.59;99368.59;5015232;28;20227;-67
2021/03/29 00:12:48;;;;;;;7.43;6.73;;;;;;;2.59;81.63;99355.13;5013663;28;20223;-67
2021/03/29 00:15:18;;;;;;;8.20;7.27;;;;;;;2.51;82.53;99361.69;5017086;28;20215;-67
2021/03/29 00:17:46;;;;;;;7.60;6.80;;;;;;;2.54;82.73;99367.63;5018988;28;20228;-68
2021/03/29 00:20:15;;;;;;;7.40;6.63;;;;;;;2.43;83.12;99360.31;5017135;28;20263;-67
2021/03/29 00:22:42;;;;;;;10.13;6.27;;;;;;;2.35;83.57;99365.09;5019246;28;20231;-66
2021/03/29 00:25:12;;;;;;;7.77;7.07;;;;;;;2.37;83.44;99365.84;5019983;28;20293;-66
2021/03/29 00:27:39;;;;;;;6.83;6.07;;;;;;;2.17;83.87;99367.69;5019163;28;20205;-66
2021/03/29 00:30:09;;;;;;;7.00;6.30;;;;;;;2.25;83.80;99372.56;5016841;28;20200;-67
2021/03/29 00:32:36;;;;;;;7.53;5.97;;;;;;;2.27;83.47;99370.69;5016682;28;20236;-66
2021/03/29 00:35:06;;;;;;;7.07;5.97;;;;;;;2.43;82.90;99370.78;5017599;28;20205;-67
2021/03/29 00:37:33;;;;;;;10.30;6.43;;;;;;;2.46;82.84;99368.00;5016273;28;20211;-66
2021/03/29 00:40:00;;;;;;;6.83;6.23;;;;;;;2.38;83.06;99370.16;5017942;28;20239;-68
2021/03/29 00:42:27;;;;;;;6.70;5.93;;;;;;;2.46;82.54;99374.97;5018931;28;20247;-65
2021/03/29 00:44:54;;;;;;;6.27;5.67;;;;;;;2.26;83.90;99373.38;5016831;28;20212;-68
2021/03/29 00:47:22;;;;;;;6.57;6.07;;;;;;;2.26;83.88;99378.63;5017773;28;20673;-65
2021/03/29 00:49:49;;;;;;;7.70;6.37;;;;;;;2.26;83.96;99381.22;5017776;28;20424;-68
2021/03/29 00:52:17;;;;;;;7.53;6.37;;;;;;;2.24;84.62;99381.31;5016610;28;20228;-65
2021/03/29 00:54:46;;;;;;;6.20;5.57;;;;;;;2.15;84.53;99379.19;5017284;28;20223;-67
2021/03/29 00:57:14;;;;;;;6.50;5.90;;;;;;;2.10;84.88;99389.03;5015696;28;20409;-69
2021/03/29 00:59:42;;;;;;;6.70;6.00;;;;;;;2.39;83.42;99378.84;5016984;28;20669;-69
2021/03/29 01:02:09;;;;;;;6.50;5.90;;;;;;;2.34;83.40;99380.84;5021287;28;20747;-68
2021/03/29 01:04:36;;;;;;;6.93;6.30;;;;;;;2.27;84.57;99373.31;5023785;28;20550;-67
2021/03/29 01:07:04;;;;;;;6.77;6.17;;;;;;;2.19;85.20;99374.63;5021430;28;20212;-68
2021/03/29 01:09:32;;;;;;;5.93;5.43;;;;;;;2.20;85.29;99378.94;5022512;28;20620;-68
2021/03/29 01:12:03;;;;;;;6.63;6.13;;;;;;;2.18;85.04;99373.78;5022604;28;20236;-67
2021/03/29 01:14:33;;;;;;;6.43;5.90;;;;;;;2.19;85.25;99372.88;5019013;28;20203;-68
2021/03/29 01:17:04;;;;;;;7.43;5.97;;;;;;;2.25;85.06;99377.78;5019829;28;20687;-68
2021/03/29 01:19:42;;;;;;;5.97;5.47;;;;;;;2.43;83.55;99376.00;5019352;28;20200;-67
2021/03/29 01:22:09;;;;;;;5.80;5.23;;;;;;;2.30;84.22;99372.34;5018200;28;20227;-66
2021/03/29 01:24:48;;;;;;;6.57;5.53;;;;;;;2.25;84.56;99375.16;5020189;28;20580;-67
2021/03/29 01:27:18;;;;;;;6.50;5.93;;;;;;;2.34;84.62;99370.38;5020968;28;20732;-66
2021/03/29 01:29:46;;;;;;;9.00;6.30;;;;;;;2.29;85.46;99378.50;5022123;28;20857;-67
2021/03/29 01:32:14;;;;;;;6.00;5.27;;;;;;;2.43;84.99;99385.63;5023198;28;20236;-68
2021/03/29 01:34:42;;;;;;;6.20;5.53;;;;;;;2.30;84.59;99383.63;5017301;28;20201;-65
2021/03/29 01:37:09;;;;;;;6.60;5.90;;;;;;;2.21;84.88;99378.88;5020789;28;20204;-65
2021/03/29 01:39:36;;;;;;;6.40;5.50;;;;;;;2.15;86.08;99374.78;5017194;28;20712;-68
2021/03/29 01:42:05;;;;;;;6.30;5.70;;;;;;;2.19;85.29;99382.47;5023033;28;20228;-67
2021/03/29 01:44:34;;;;;;;7.03;5.40;;;;;;;2.11;85.39;99375.03;5021029;28;20821;-66
2021/03/29 01:47:01;;;;;;;8.07;5.70;;;;;;;2.08;85.44;99383.00;5021825;28;20204;-67
2021/03/29 01:49:28;;;;;;;9.03;5.77;;;;;;;2.00;86.17;99384.22;5021166;28;20883;-66
2021/03/29 01:51:56;;;;;;;7.50;6.10;;;;;;;2.02;86.72;99387.59;5016028;28;20259;-65
2021/03/29 01:54:23;;;;;;;6.23;5.63;;;;;;;1.90;87.02;99387.38;5017919;28;20204;-68
2021/03/29 01:56:50;;;;;;;6.40;5.80;;;;;;;1.82;87.60;99382.50;5020374;28;20287;-68
2021/03/29 01:59:19;;;;;;;5.67;5.23;;;;;;;1.85;87.19;99379.75;5019578;28;20208;-66
2021/03/29 02:01:47;;;;;;;6.43;5.60;;;;;;;1.81;87.64;99386.06;5019758;28;20289;-66
2021/03/29 02:04:14;;;;;;;6.33;5.73;;;;;;;1.70;88.31;99386.56;5019466;28;20664;-67
2021/03/29 02:06:41;;;;;;;6.10;5.57;;;;;;;1.62;88.52;99384.31;5018659;28;20200;-68
2021/03/29 02:09:09;;;;;;;7.77;5.43;;;;;;;1.57;88.64;99383.69;5019350;28;20208;-67
2021/03/29 02:11:37;;;;;;;7.73;5.73;;;;;;;1.63;88.82;99380.78;5017462;28;20216;-68
2021/03/29 02:14:04;;;;;;;7.27;5.73;;;;;;;1.66;88.95;99388.47;5018979;28;20258;-67
2021/03/29 02:16:32;;;;;;;7.40;5.70;;;;;;;1.66;88.46;99387.63;5016917;28;20836;-67
2021/03/29 02:19:02;;;;;;;6.27;5.67;;;;;;;1.65;88.98;99389.38;5016743;28;20754;-66
2021/03/29 02:21:33;;;;;;;5.70;5.20;;;;;;;1.83;87.80;99394.66;5018525;28;20475;-67
2021/03/29 02:24:00;;;;;;;8.23;6.60;;;;;;;1.98;87.25;99393.91;5020019;28;20588;-67
2021/03/29 02:26:29;;;;;;;7.17;5.50;;;;;;;1.97;87.11;99394.84;5020582;28;20236;-68
2021/03/29 02:28:57;;;;;;;6.00;5.50;;;;;;;1.99;86.76;99390.38;5019835;28;20577;-66
2021/03/29 02:31:25;;;;;;;6.63;6.00;;;;;;;1.99;87.31;99385.13;5020036;28;20212;-68
2021/03/29 02:33:52;;;;;;;8.73;5.43;;;;;;;2.08;87.77;99391.69;5022388;28;20208;-67
2021/03/29 02:36:21;;;;;;;6.00;5.50;;;;;;;2.10;87.10;99387.22;5018250;28;20204;-69
2021/03/29 02:38:48;;;;;;;5.50;5.00;;;;;;;2.08;86.79;99394.31;5021677;28;20208;-67
2021/03/29 02:41:16;;;;;;;7.13;4.90;;;;;;;2.28;85.41;99384.66;5016365;28;20374;-66
2021/03/29 02:43:46;;;;;;;9.03;5.17;;;;;;;2.13;85.92;99394.09;5020136;28;20204;-68
2021/03/29 02:46:13;;;;;;;6.07;5.30;;;;;;;2.13;85.73;99394.09;5020238;28;20211;-66
2021/03/29 02:48:44;;;;;;;5.73;5.23;;;;;;;2.09;86.53;99395.19;5019849;28;20215;-67
2021/03/29 02:51:12;;;;;;;5.17;4.70;;;;;;;1.98;86.91;99398.31;5017667;28;20572;-67
2021/03/29 02:53:46;;;;;;;8.63;6.07;;;;;;;1.99;86.41;99398.22;5017267;28;20644;-65
2021/03/29 02:56:16;;;;;;;5.17;4.67;;;;;;;2.06;86.15;99400.53;5018494;28;20200;-66
2021/03/29 02:58:46;;;;;;;5.37;4.90;;;;;;;1.94;86.69;99394.97;5017737;28;20228;-67
2021/03/29 03:01:14;;;;;;;6.00;5.40;;;;;;;2.05;86.19;99394.47;5017201;28;20231;-66
2021/03/29 03:03:42;;;;;;;7.33;4.97;;;;;;;2.01;86.65;99404.22;5020749;28;20200;-66
2021/03/29 03:06:09;;;;;;;11.03;5.20;;;;;;;2.02;86.37;99398.06;5016807;28;20204;-67
2021/03/29 03:08:37;;;;;;;7.20;5.47;;;;;;;1.85;87.20;99395.44;5017303;28;20418;-69
2021/03/29 03:11:09;;;;;;;5.07;4.57;;;;;;;1.79;88.00;99399.19;5017181;28;20351;-68
2021/03/29 03:13:37;;;;;;;5.97;5.47;;;;;;;1.77;88.37;99394.97;5014441;28;20243;-66
2021/03/29 03:16:05;;;;;;;6.07;4.53;;;;;;;1.76;88.11;99399.31;5017301;28;20204;-67
2021/03/29 03:18:32;;;;;;;7.50;5.17;;;;;;;1.67;88.49;99395.38;5020638;28;20210;-67
2021/03/29 03:20:59;;;;;;;5.60;4.93;;;;;;;1.52;89.96;99403.94;5018685;28;20228;-67
2021/03/29 03:23:26;;;;;;;5.57;5.07;;;;;;;1.64;89.08;99400.75;5017922;28;20228;-66
2021/03/29 03:25:54;;;;;;;5.87;5.40;;;;;;;1.46;89.57;99401.63;5018857;28;20235;-66
2021/03/29 03:28:23;;;;;;;6.23;5.40;;;;;;;1.37;89.93;99406.38;5016262;28;20196;-66
2021/03/29 03:30:52;;;;;;;6.13;5.10;;;;;;;1.29;90.67;99411.94;5019789;28;20281;-66
2021/03/29 03:33:20;;;;;;;7.53;5.33;;;;;;;1.28;90.33;99414.59;5018676;28;20247;-67
2021/03/29 03:35:49;;;;;;;7.60;5.67;;;;;;;1.15;91.17;99411.72;5017068;28;20207;-65
2021/03/29 03:38:19;;;;;;;5.97;5.47;;;;;;;1.28;91.41;99407.63;5017648;28;20602;-67
2021/03/29 03:40:49;;;;;;;6.57;4.90;;;;;;;1.26;91.12;99413.84;5016716;28;20216;-67
2021/03/29 03:43:18;;;;;;;6.30;5.80;;;;;;;1.17;92.05;99404.66;5020314;28;20255;-66
2021/03/29 03:45:49;;;;;;;7.10;5.23;;;;;;;1.14;91.63;99407.44;5018075;28;20208;-68
2021/03/29 03:48:17;;;;;;;6.37;5.37;;;;;;;1.05;92.45;99405.19;5015828;28;20379;-67
2021/03/29 03:50:46;;;;;;;9.30;5.27;;;;;;;1.07;92.80;99409.47;5019250;28;20208;-66
2021/03/29 03:53:13;;;;;;;6.03;5.53;;;;;;;1.04;93.31;99408.72;5016533;28;20228;-66
2021/03/29 03:55:40;;;;;;;8.33;5.40;;;;;;;1.09;92.70;99410.22;5018531;28;20607;-66
2021/03/29 03:58:08;;;;;;;5.40;4.90;;;;;;;0.97;92.99;99421.22;5016947;28;20704;-66
2021/03/29 04:00:35;;;;;;;5.70;5.10;;;;;;;0.93;93.25;99419.66;5013367;28;20232;-68
2021/03/29 04:03:03;;;;;;;5.30;4.93;;;;;;;0.92;93.80;99413.59;5014884;28;20219;-64
2021/03/29 04:05:30;;;;;;;6.73;5.60;;;;;;;0.90;94.25;99425.00;5017189;28;20204;-67
2021/03/29 04:08:17;;;;;;;5.97;5.40;;;;;;;0.91;93.82;99419.72;5013377;28;20208;-68
2021/03/29 04:10:46;;;;;;;10.43;5.97;;;;;;;0.90;93.31;99423.25;5015270;28;20205;-64
2021/03/29 04:13:15;;;;;;;7.37;4.73;;;;;;;0.91;93.02;99424.94;5017152;28;20216;-65
2021/03/29 04:15:43;;;;;;;5.50;5.10;;;;;;;1.19;91.58;99420.25;5015671;28;20259;-66
2021/03/29 04:18:10;;;;;;;6.23;5.40;;;;;;;1.04;91.78;99433.09;5017341;28;20208;-67
2021/03/29 04:20:37;;;;;;;5.27;4.87;;;;;;;0.96;92.45;99424.75;5014568;28;20260;-67
2021/03/29 04:23:04;;;;;;;5.57;5.07;;;;;;;0.97;92.42;99429.91;5017973;28;20231;-65
2021/03/29 04:25:32;;;;;;;6.00;5.10;;;;;;;0.89;93.16;99437.22;5014631;28;20255;-68
2021/03/29 04:27:59;;;;;;;7.57;5.50;;;;;;;0.77;93.93;99430.75;5019340;28;21220;-66
2021/03/29 04:30:26;;;;;;;5.73;5.17;;;;;;;0.75;93.91;99431.72;5018359;28;20211;-68
2021/03/29 04:32:53;;;;;;;6.30;5.17;;;;;;;0.65;94.19;99428.69;5017952;28;20263;-67
2021/03/29 04:35:23;;;;;;;5.97;5.47;;;;;;;0.65;94.21;99434.75;5020257;28;20201;-67
2021/03/29 04:37:51;;;;;;;6.00;5.40;;;;;;;0.56;94.65;99437.75;5020039;28;20208;-68
2021/03/29 04:40:20;;;;;;;7.83;5.57;;;;;;;0.64;94.47;99434.81;5017862;28;20216;-68
2021/03/29 04:42:47;;;;;;;5.77;5.07;;;;;;;0.61;94.55;99440.19;5021289;28;20228;-66
2021/03/29 04:45:15;;;;;;;6.00;4.83;;;;;;;0.63;94.12;99444.41;5019972;28;20610;-67
2021/03/29 04:47:42;;;;;;;5.87;5.37;;;;;;;0.51;93.99;99447.53;5021287;28;20204;-66
2021/03/29 04:50:11;;;;;;;5.83;5.33;;;;;;;0.48;94.48;99445.88;5019718;28;20418;-65
2021/03/29 04:52:38;;;;;;;6.40;4.40;;;;;;;0.42;95.65;99451.38;5022043;28;20231;-67
2021/03/29 04:55:07;;;;;;;7.20;5.50;;;;;;;0.45;95.36;99451.25;5020999;28;20212;-66
2021/03/29 04:57:34;;;;;;;5.00;4.53;;;;;;;0.52;95.20;99454.44;5020423;28;20204;-66
2021/03/29 05:00:01;;;;;;;6.47;5.57;;;;;;;0.59;95.50;99452.44;5022448;28;20242;-66
2021/03/29 05:02:28;;;;;;;7.03;5.73;;;;;;;0.59;95.47;99453.28;5022075;28;20236;-66
2021/03/29 05:04:55;;;;;;;7.93;5.67;;;;;;;0.51;95.57;99439.72;5021799;28;20215;-66
2021/03/29 05:07:22;;;;;;;5.57;5.17;;;;;;;0.66;95.35;99443.44;5023262;28;20594;-69
2021/03/29 05:09:50;;;;;;;6.00;5.43;;;;;;;0.64;95.93;99440.03;5022821;28;20208;-68
2021/03/29 05:12:19;;;;;;;5.97;5.07;;;;;;;0.80;95.24;99440.25;5021918;28;20223;-67
2021/03/29 05:14:46;;;;;;;5.20;4.80;;;;;;;0.76;96.77;99444.72;5023343;28;20204;-69
2021/03/29 05:17:13;;;;;;;10.10;5.10;;;;;;;0.91;98.13;99443.22;5018375;28;20215;-67
2021/03/29 05:19:40;;;;;;;5.77;4.97;;;;;;;0.95;97.60;99446.56;5021040;28;20211;-69
2021/03/29 05:22:08;;;;;;;7.80;4.70;;;;;;;1.35;99.32;99444.78;5020871;28;20382;-67
2021/03/29 05:24:36;;;;;;;6.43;5.00;;;;;;;1.42;97.38;99448.81;5019318;28;20208;-66
2021/03/29 05:27:05;;;;;;;6.00;5.27;;;;;;;1.65;96.61;99457.34;5023441;28;20205;-68
2021/03/29 05:29:41;;;;;;;7.87;5.87;;;;;;;1.80;95.49;99450.53;5023707;28;20278;-69
2021/03/29 05:32:13;;;;;;;7.00;5.23;;;;;;;1.79;96.11;99453.25;5020308;28;20263;-68
2021/03/29 05:34:40;;;;;;;5.20;4.57;;;;;;;1.80;95.36;99455.78;5020791;28;20200;-66
2021/03/29 05:37:07;;;;;;;5.33;4.93;;;;;;;1.89;95.28;99449.28;5020545;28;20200;-70
2021/03/29 05:39:34;;;;;;;5.90;5.13;;;;;;;1.87;94.79;99453.72;5018218;28;20697;-66
2021/03/29 05:42:01;;;;;;;5.47;4.93;;;;;;;1.91;92.82;99451.81;5020356;28;20267;-69
2021/03/29 05:44:29;;;;;;;5.70;5.13;;;;;;;1.95;93.95;99453.38;5020853;28;20698;-67
2021/03/29 05:46:56;;;;;;;7.13;4.93;;;;;;;2.02;92.55;99457.38;5019960;28;20196;-67
2021/03/29 05:49:23;;;;;;;7.23;5.50;;;;;;;2.23;92.87;99462.47;5016270;28;20653;-66
2021/03/29 05:51:51;;;;;;;5.23;4.40;;;;;;;2.26;91.16;99465.81;5018204;28;20221;-68
2021/03/29 05:54:19;;;;;;;6.80;5.77;;;;;;;2.37;88.21;99465.28;5018473;28;20212;-68
2021/03/29 05:56:47;;;;;;;9.37;7.37;;;;;;;2.56;85.57;99462.59;5022862;28;20208;-68
2021/03/29 05:59:17;;;;;;;6.20;5.70;;;;;;;2.56;84.83;99467.84;5019688;28;20215;-67
2021/03/29 06:01:47;;;;;;;8.67;6.73;;;;;;;2.62;84.19;99464.03;5019858;28;20232;-68
2021/03/29 06:04:15;;;;;;;6.90;6.20;;;;;;;2.66;85.73;99464.75;5018304;28;20304;-67
2021/03/29 06:06:43;;;;;;;7.20;5.70;;;;;;;2.75;87.93;99466.88;5018207;28;20210;-67
2021/03/29 06:09:10;;;;;;;6.17;5.57;;;;;;;2.88;85.96;99465.38;5020522;28;20204;-68
2021/03/29 06:11:38;;;;;;;8.50;6.10;;;;;;;2.87;86.41;99470.66;5021113;28;20232;-69
2021/03/29 06:14:22;;;;;;;8.37;4.93;;;;;;;2.95;85.52;99478.13;5018330;28;20204;-69
2021/03/29 06:16:58;;;;;;;5.40;4.90;;;;;;;2.95;84.98;99480.75;5018062;28;20215;-69
2021/03/29 06:19:43;;;;;;;6.67;5.30;;;;;;;3.08;87.63;99479.19;5018544;28;20697;-66
2021/03/29 06:22:12;;;;;;;7.97;4.93;;;;;;;3.07;86.60;99487.13;5019983;28;20530;-70
2021/03/29 06:24:56;;;;;;;6.23;4.70;;;;;;;3.08;85.61;99480.97;5020814;28;20214;-69
2021/03/29 06:27:24;;;;;;;6.83;4.97;;;;;;;3.09;84.57;99493.97;5017574;28;20200;-69
2021/03/29 06:29:52;;;;;;;7.10;6.47;;;;;;;3.21;85.95;99491.63;5020165;28;20208;-70
2021/03/29 06:32:20;;;;;;;6.90;5.43;;;;;;;3.23;86.25;99497.66;5020876;28;20282;-68
2021/03/29 06:34:47;;;;;;;7.07;6.30;;;;;;;3.28;85.99;99498.28;5021453;28;20200;-69
2021/03/29 06:37:19;;;;;;;6.70;6.10;;;;;;;3.48;85.03;99498.03;5017069;28;20236;-68
2021/03/29 06:39:46;;;;;;;7.23;5.27;;;;;;;3.71;84.87;99482.88;5019622;28;20208;-69
2021/03/29 06:42:13;;;;;;;6.50;5.37;;;;;;;4.00;81.39;99493.53;5019042;28;20236;-67
2021/03/29 06:44:40;;;;;;;6.00;5.43;;;;;;;4.20;80.99;99488.94;5019754;28;20311;-69
2021/03/29 06:47:10;;;;;;;6.40;5.80;;;;;;;4.44;79.00;99494.56;5020844;28;20210;-68
2021/03/29 06:49:39;;;;;;;6.00;4.73;;;;;;;4.78;77.99;99499.66;5018855;28;20199;-70
2021/03/29 06:52:24;;;;;;;5.00;4.40;;;;;;;5.04;75.78;99500.75;5019277;28;20870;-69
2021/03/29 06:54:51;;;;;;;8.23;4.90;;;;;;;5.21;75.02;99498.88;5019985;28;20205;-69
2021/03/29 06:57:28;;;;;;;7.10;4.60;;;;;;;5.52;74.16;99494.38;5018283;28;20204;-68
2021/03/29 06:59:56;;;;;;;6.20;4.23;;;;;;;5.94;72.19;99491.78;5019136;28;20583;-66
2021/03/29 07:02:36;;;;;;;4.03;3.60;;;;;;;6.34;70.93;99491.03;5018973;28;20237;-69
2021/03/29 07:05:06;;;;;;;4.37;4.00;;;;;;;6.58;70.11;99496.47;5020828;28;20459;-69
2021/03/29 07:07:33;;;;;;;7.63;4.30;;;;;;;6.93;68.23;99500.34;5017895;28;20678;-68
2021/03/29 07:10:02;;;;;;;7.40;4.47;;;;;;;7.37;67.60;99501.72;5018776;28;20208;-69
2021/03/29 07:12:34;;;;;;;6.57;4.37;;;;;;;7.55;65.92;99500.56;5018950;28;20668;-68
2021/03/29 07:15:03;;;;;;;6.87;3.90;;;;;;;7.91;65.60;99496.28;5017465;28;20766;-69
2021/03/29 07:17:31;;;;;;;6.63;4.20;;;;;;;8.06;63.27;99499.59;5019739;28;20214;-71
2021/03/29 07:19:58;;;;;;;4.80;4.30;;;;;;;8.04;63.29;99504.97;5018323;28;20212;-71
2021/03/29 07:22:26;;;;;;;4.53;4.10;;;;;;;8.17;63.72;99504.13;5014199;28;20229;-68
2021/03/29 07:24:54;;;;;;;7.53;4.13;;;;;;;8.35;64.80;99517.78;5012831;28;20697;-70
2021/03/29 07:27:21;;;;;;;6.30;4.03;;;;;;;8.47;63.84;99511.59;5016936;28;20200;-70
2021/03/29 07:29:49;;;;;;;4.87;4.30;;;;;;;8.51;63.12;99517.50;5017582;28;20313;-69
2021/03/29 07:32:27;;;;;;;4.50;4.10;;;;;;;8.97;61.86;99519.38;5018659;28;20224;-69
2021/03/29 07:34:54;;;;;;;4.20;3.77;;;;;;;8.89;61.65;99515.63;5017212;28;20739;-67
2021/03/29 07:37:35;;;;;;;5.17;4.00;;;;;;;9.04;61.24;99516.25;5014697;28;20204;-69
2021/03/29 07:40:05;;;;;;;6.47;4.53;;;;;;;9.37;60.53;99520.75;5015142;28;20211;-69
2021/03/29 07:42:38;;;;;;;4.47;4.07;;;;;;;9.51;60.74;99514.38;5018034;28;20407;-68
2021/03/29 07:45:10;;;;;;;6.20;4.10;;;;;;;9.87;58.51;99522.22;5011519;28;20479;-70
2021/03/29 07:47:50;;;;;;;10.57;5.07;;;;;;;9.82;57.70;99521.72;5013643;28;20328;-70
2021/03/29 07:50:50;;;;;;;7.07;4.17;;;;;;;9.86;56.81;99520.53;5016066;28;20204;-71
2021/03/29 07:53:20;;;;;;;7.53;4.63;;;;;;;9.95;57.54;99517.16;5014510;28;20234;-68
2021/03/29 07:55:50;;;;;;;5.77;3.87;;;;;;;10.06;57.54;99534.84;5017705;28;20208;-69
2021/03/29 07:58:18;;;;;;;4.67;4.27;;;;;;;10.18;56.29;99529.50;5013165;28;20207;-66
2021/03/29 08:01:03;;;;;;;5.73;4.03;;;;;;;10.23;55.74;99538.78;5015497;28;20262;-69
2021/03/29 08:03:53;;;;;;;5.43;4.13;;;;;;;10.28;55.68;99533.09;5016631;28;20235;-68
2021/03/29 08:06:38;;;;;;;4.20;3.80;;;;;;;10.40;55.25;99545.38;5012311;28;20299;-66
2021/03/29 08:09:06;;;;;;;5.70;3.90;;;;;;;10.55;55.33;99545.09;5014140;28;20204;-66
2021/03/29 08:11:53;;;;;;;3.60;3.30;;;;;;;10.48;56.12;99539.44;5018700;28;20803;-68
2021/03/29 08:14:33;;;;;;;6.27;3.67;;;;;;;10.57;54.90;99546.63;5018138;28;20200;-68
2021/03/29 08:17:33;;;;;;;4.63;3.57;;;;;;;10.50;53.92;99540.16;5018323;28;20750;-68
2021/03/29 08:20:24;;;;;;;5.73;4.00;;;;;;;10.53;55.16;99547.88;5015613;28;20200;-67
2021/03/29 08:23:29;;;;;;;5.17;3.40;;;;;;;10.32;55.81;99541.66;5021522;28;20224;-66
2021/03/29 08:26:06;;;;;;;4.23;3.40;;;;;;;10.38;55.05;99541.16;5019030;28;21520;-68
2021/03/29 08:29:11;;;;;;;6.87;3.53;;;;;;;10.44;54.29;99550.44;5020144;28;20794;-68
2021/03/29 08:32:01;;;;;;;5.23;3.50;;;;;;;10.71;53.22;99542.84;5016235;28;20632;-69
2021/03/29 08:34:29;;;;;;;4.33;3.20;;;;;;;11.00;51.89;99546.72;5015770;28;20215;-68
2021/03/29 08:37:00;;;;;;;5.40;2.60;;;;;;;11.29;51.21;99557.53;5015176;28;20204;-67
2021/03/29 08:39:31;;;;;;;3.20;2.90;;;;;;;11.57;50.42;99555.19;5016526;28;20204;-68
2021/03/29 08:42:00;;;;;;;5.03;3.10;;;;;;;11.54;49.55;99552.75;5019480;28;20239;-70
2021/03/29 08:44:28;;;;;;;6.20;2.83;;;;;;;11.84;48.51;99551.09;5019725;28;20204;-69
2021/03/29 08:46:55;;;;;;;5.47;3.13;;;;;;;12.02;48.79;99561.94;5018490;28;20211;-68
2021/03/29 08:49:23;;;;;;;6.00;2.80;;;;;;;12.15;47.70;99555.56;5020324;28;20904;-67
2021/03/29 08:51:52;;;;;;;3.27;2.80;;;;;;;12.18;46.42;99555.28;5020431;28;20472;-67
2021/03/29 08:54:19;;;;;;;3.10;2.50;;;;;;;12.38;46.93;99548.19;5017133;28;20222;-68
2021/03/29 08:56:49;;;;;;;4.60;3.03;;;;;;;12.45;46.72;99554.66;5014629;28;20390;-67
2021/03/29 08:59:17;;;;;;;3.83;2.90;;;;;;;12.69;45.68;99548.09;5017232;28;20208;-67
2021/03/29 09:01:44;;;;;;;5.00;2.73;;;;;;;12.64;44.62;99546.81;5014611;28;20248;-67
2021/03/29 09:04:11;;;;;;;6.43;3.10;;;;;;;12.65;44.20;99549.34;5020074;28;20212;-69
2021/03/29 09:06:38;;;;;;;4.27;2.50;;;;;;;12.90;44.35;99554.25;5018518;28;20756;-68
2021/03/29 09:09:13;;;;;;;4.37;2.53;;;;;;;12.81;45.02;99554.09;5017480;28;20297;-68
2021/03/29 09:11:41;;;;;;;6.60;3.43;;;;;;;12.81;43.97;99554.09;5017966;28;20678;-66
2021/03/29 09:14:08;;;;;;;4.73;2.97;;;;;;;12.91;42.91;99556.75;5013560;28;20400;-66
2021/03/29 09:16:37;;;;;;;3.23;2.47;;;;;;;13.03;42.75;99554.81;5014204;28;20632;-68
2021/03/29 09:19:17;;;;;;;4.17;2.90;;;;;;;13.12;41.83;99545.13;5016539;28;20210;-67
2021/03/29 09:21:52;;;;;;;3.80;2.13;;;;;;;13.12;42.12;99550.47;5013180;28;20228;-67
2021/03/29 09:24:20;;;;;;;4.67;2.23;;;;;;;13.10;40.59;99555.09;5018988;28;20771;-68
2021/03/29 09:26:58;;;;;;;2.77;2.47;;;;;;;13.15;40.95;99551.00;5016051;28;20208;-68
2021/03/29 09:29:32;;;;;;;4.40;2.87;;;;;;;13.16;42.42;99551.84;5016087;28;20204;-69
2021/03/29 09:32:04;;;;;;;4.10;2.43;;;;;;;13.31;40.63;99549.59;5014475;28;20233;-67
2021/03/29 09:34:31;;;;;;;5.43;2.23;;;;;;;13.65;40.54;99548.25;5020112;28;20200;-66
2021/03/29 09:36:58;;;;;;;4.30;2.13;;;;;;;13.80;41.09;99553.94;5015911;28;20672;-65
2021/03/29 09:39:29;;;;;;;4.83;2.87;;;;;;;14.03;40.09;99559.72;5014702;28;20253;-63
2021/03/29 09:42:00;;;;;;;3.90;1.90;;;;;;;13.95;38.55;99562.28;5015806;28;20228;-65
2021/03/29 09:44:30;;;;;;;2.93;2.27;;;;;;;13.96;37.97;99547.97;5011916;28;20212;-66
2021/03/29 09:46:59;;;;;;;2.70;2.30;;;;;;;13.97;39.02;99560.31;5017405;28;20212;-64
2021/03/29 09:49:28;;;;;;;3.73;1.97;;;;;;;14.22;38.13;99553.44;5014643;28;20204;-65
2021/03/29 09:52:08;;;;;;;4.17;2.30;;;;;;;14.39;37.62;99562.47;5016577;28;20224;-65
2021/03/29 09:54:37;;;;;;;2.50;2.30;;;;;;;14.40;37.51;99550.00;5016181;28;20231;-65
2021/03/29 09:57:14;;;;;;;3.40;2.37;;;;;;;14.40;36.90;99545.47;5013210;28;20210;-64
2021/03/29 09:59:43;;;;;;;2.23;1.90;;;;;;;14.42;36.60;99545.34;5016201;28;20211;-64
2021/03/29 10:02:13;;;;;;;4.00;2.47;;;;;;;14.57;36.35;99541.16;5014676;28;20263;-64
2021/03/29 10:04:44;;;;;;;4.30;3.00;;;;;;;14.75;35.69;99530.50;5014946;28;20676;-63
2021/03/29 10:07:15;;;;;;;3.47;2.43;;;;;;;14.78;35.53;99536.53;5017427;28;20201;-65
2021/03/29 10:09:46;;;;;;;3.83;2.37;;;;;;;14.49;36.10;99538.41;5010021;28;20287;-63
2021/03/29 10:12:23;;;;;;;3.40;2.77;;;;;;;14.65;36.67;99529.72;5013927;28;20224;-65
2021/03/29 10:14:50;;;;;;;2.23;1.67;;;;;;;14.89;35.73;99531.81;5012502;28;20196;-65
2021/03/29 10:17:18;;;;;;;2.33;2.13;;;;;;;15.17;35.07;99533.50;5016674;28;20557;-65
2021/03/29 10:19:47;;;;;;;3.13;2.27;;;;;;;15.15;34.58;99527.47;5016645;28;20212;-64
2021/03/29 10:22:15;;;;;;;4.57;2.57;;;;;;;15.21;33.94;99537.53;5018471;28;20231;-64
2021/03/29 10:24:56;;;;;;;6.83;2.67;;;;;;;15.09;35.01;99533.44;5014088;28;20208;-66
2021/03/29 10:27:37;;;;;;;4.27;2.50;;;;;;;15.39;35.70;99537.50;5013466;28;20393;-63
2021/03/29 10:30:06;;;;;;;3.10;2.20;;;;;;;15.40;35.88;99531.16;5014657;28;20204;-66
2021/03/29 10:32:33;;;;;;;3.00;2.10;;;;;;;15.66;33.36;99535.66;5013723;28;20716;-65
2021/03/29 10:35:01;;;;;;;4.20;2.10;;;;;;;15.61;32.65;99533.44;5017280;28;20212;-65
2021/03/29 10:37:30;;;;;;;3.67;2.17;;;;;;;15.49;32.60;99530.19;5016992;28;20208;-66
2021/03/29 10:39:59;;;;;;;5.37;2.37;;;;;;;15.49;32.68;99524.03;5015955;28;20729;-65
2021/03/29 10:42:28;;;;;;;4.13;2.47;;;;;;;15.65;32.31;99528.63;5015248;28;20777;-66
2021/03/29 10:44:55;;;;;;;5.57;2.40;;;;;;;15.52;32.40;99525.53;5014293;28;20648;-64
2021/03/29 10:47:23;;;;;;;2.40;2.10;;;;;;;15.76;32.62;99522.16;5016438;28;20212;-66
2021/03/29 10:49:51;;;;;;;6.10;2.47;;;;;;;15.61;33.66;99525.44;5013884;28;20205;-66
2021/03/29 10:52:18;;;;;;;2.63;2.40;;;;;;;16.29;32.81;99514.88;5016256;28;20479;-64
2021/03/29 10:54:46;;;;;;;3.83;2.40;;;;;;;16.38;32.39;99513.03;5013092;28;20684;-66
2021/03/29 10:57:12;;;;;;;4.80;2.17;;;;;;;16.23;32.80;99515.50;5012586;28;20201;-65
2021/03/29 10:59:39;;;;;;;2.30;2.10;;;;;;;16.45;31.55;99513.22;5014681;28;20204;-64
2021/03/29 11:02:07;;;;;;;5.23;2.60;;;;;;;16.70;30.37;99505.22;5017180;28;20228;-69
2021/03/29 11:04:42;;;;;;;5.23;2.30;;;;;;;16.59;31.72;99509.88;5016068;28;20291;-68
2021/03/29 11:07:11;;;;;;;5.80;2.13;;;;;;;17.01;31.60;99513.44;5013847;28;20212;-67
2021/03/29 11:09:40;;;;;;;4.47;2.57;;;;;;;16.49;30.24;99514.56;5015655;28;20768;-67
2021/03/29 11:12:08;;;;;;;3.03;1.73;;;;;;;16.75;30.57;99506.38;5014562;28;20223;-68
2021/03/29 11:14:35;;;;;;;3.87;2.60;;;;;;;17.04;30.15;99517.59;5017119;28;20211;-69
2021/03/29 11:17:04;;;;;;;3.27;2.40;;;;;;;16.77;29.98;99512.38;5019413;28;20212;-69
2021/03/29 11:19:31;;;;;;;2.60;2.40;;;;;;;16.21;29.92;99506.78;5015283;28;20722;-69
2021/03/29 11:21:58;;;;;;;2.43;2.23;;;;;;;16.26;30.98;99493.75;5013621;28;20232;-70
2021/03/29 11:24:25;;;;;;;2.50;2.30;;;;;;;16.48;30.68;99496.81;5010796;28;20205;-70
2021/03/29 11:26:53;;;;;;;3.27;1.93;;;;;;;16.68;29.82;99494.66;5017481;28;20668;-69
2021/03/29 11:29:20;;;;;;;2.73;2.20;;;;;;;16.97;29.46;99493.31;5015046;28;20227;-67
2021/03/29 11:31:47;;;;;;;5.40;2.63;;;;;;;16.78;30.73;99489.97;5012650;28;20228;-66
2021/03/29 11:34:14;;;;;;;3.77;2.40;;;;;;;16.76;30.30;99486.63;5011447;28;20212;-69
2021/03/29 11:36:41;;;;;;;3.50;2.30;;;;;;;16.98;30.41;99480.78;5013191;28;20211;-67
2021/03/29 11:39:09;;;;;;;2.33;1.90;;;;;;;17.42;30.15;99482.22;5016870;28;20204;-69
2021/03/29 11:41:36;;;;;;;4.93;2.10;;;;;;;17.55;28.01;99495.91;5009813;28;20490;-66
2021/03/29 11:44:05;;;;;;;2.00;1.70;;;;;;;17.36;27.09;99497.97;5012851;28;20228;-67
2021/03/29 11:46:32;;;;;;;2.53;1.87;;;;;;;17.75;26.57;99484.78;5010488;28;20201;-65
2021/03/29 11:49:00;;;;;;;2.67;1.83;;;;;;;17.61;26.67;99503.25;5010536;28;20216;-67
2021/03/29 11:51:27;;;;;;;3.63;2.00;;;;;;;17.24;26.73;99494.00;5014914;28;20661;-67